sensor_id;sensor_type;location;lat;lon;timestamp;P1;durP1;ratioP1;P2;durP2;ratioP2
58238;SDS011;44037;55.638;37.356;2023-10-31T00:00:39;7.75;;;5.40;;
58238;SDS011;44037;55.638;37.356;2023-10-31T00:03:06;6.72;;;5.22;;
58238;SDS011;44037;55.638;37.356;2023-10-31T00:05:34;8.00;;;5.25;;
58238;SDS011;44037;55.638;37.356;2023-10-31T00:08:02;5.88;;;4.80;;
58238;SDS011;44037;55.638;37.356;2023-10-31T00:10:30;7.57;;;5.18;;
58238;SDS011;44037;55.638;37.356;2023-10-31T00:12:59;7.97;;;5.63;;
58238;SDS011;44037;55.638;37.356;2023-10-31T00:15:27;8.30;;;4.90;;
58238;SDS011;44037;55.638;37.356;2023-10-31T00:17:56;5.57;;;4.68;;
58238;SDS011;44037;55.638;37.356;2023-10-31T00:20:24;7.95;;;4.97;;
58238;SDS011;44037;55.638;37.356;2023-10-31T00:22:51;8.05;;;4.78;;
58238;SDS011;44037;55.638;37.356;2023-10-31T00:25:19;6.00;;;4.50;;
58238;SDS011;44037;55.638;37.356;2023-10-31T00:27:47;5.22;;;4.50;;
58238;SDS011;44037;55.638;37.356;2023-10-31T00:30:16;8.15;;;5.25;;
58238;SDS011;44037;55.638;37.356;2023-10-31T00:32:44;5.40;;;4.20;;
58238;SDS011;44037;55.638;37.356;2023-10-31T00:35:12;6.18;;;4.75;;
58238;SDS011;44037;55.638;37.356;2023-10-31T00:37:40;8.20;;;4.75;;
58238;SDS011;44037;55.638;37.356;2023-10-31T00:40:08;7.90;;;4.85;;
58238;SDS011;44037;55.638;37.356;2023-10-31T00:42:37;5.85;;;4.80;;
58238;SDS011;44037;55.638;37.356;2023-10-31T00:45:06;5.55;;;4.50;;
58238;SDS011;44037;55.638;37.356;2023-10-31T00:47:36;7.25;;;4.47;;
58238;SDS011;44037;55.638;37.356;2023-10-31T00:50:04;8.07;;;4.72;;
58238;SDS011;44037;55.638;37.356;2023-10-31T00:52:33;6.32;;;4.72;;
58238;SDS011;44037;55.638;37.356;2023-10-31T00:55:01;7.95;;;4.65;;
58238;SDS011;44037;55.638;37.356;2023-10-31T00:57:30;4.25;;;3.85;;
58238;SDS011;44037;55.638;37.356;2023-10-31T00:59:58;6.22;;;4.43;;
58238;SDS011;44037;55.638;37.356;2023-10-31T01:02:25;6.72;;;4.25;;
58238;SDS011;44037;55.638;37.356;2023-10-31T01:04:54;5.70;;;4.40;;
58238;SDS011;44037;55.638;37.356;2023-10-31T01:07:22;6.80;;;4.78;;
58238;SDS011;44037;55.638;37.356;2023-10-31T01:09:50;6.43;;;4.43;;
58238;SDS011;44037;55.638;37.356;2023-10-31T01:12:17;6.97;;;4.72;;
58238;SDS011;44037;55.638;37.356;2023-10-31T01:14:45;6.63;;;4.55;;
58238;SDS011;44037;55.638;37.356;2023-10-31T01:17:12;5.70;;;4.50;;
58238;SDS011;44037;55.638;37.356;2023-10-31T01:19:40;7.53;;;5.45;;
58238;SDS011;44037;55.638;37.356;2023-10-31T01:22:09;7.63;;;4.78;;
58238;SDS011;44037;55.638;37.356;2023-10-31T01:24:37;4.80;;;4.07;;
58238;SDS011;44037;55.638;37.356;2023-10-31T01:27:05;7.70;;;4.50;;
58238;SDS011;44037;55.638;37.356;2023-10-31T01:29:32;5.47;;;4.18;;
58238;SDS011;44037;55.638;37.356;2023-10-31T01:32:00;5.85;;;4.60;;
58238;SDS011;44037;55.638;37.356;2023-10-31T01:34:27;7.40;;;4.80;;
58238;SDS011;44037;55.638;37.356;2023-10-31T01:36:55;6.38;;;4.75;;
58238;SDS011;44037;55.638;37.356;2023-10-31T01:39:24;6.75;;;4.80;;
58238;SDS011;44037;55.638;37.356;2023-10-31T01:41:52;6.53;;;5.32;;
58238;SDS011;44037;55.638;37.356;2023-10-31T01:44:20;6.72;;;5.32;;
58238;SDS011;44037;55.638;37.356;2023-10-31T01:46:48;7.70;;;5.07;;
58238;SDS011;44037;55.638;37.356;2023-10-31T01:49:16;8.60;;;5.47;;
58238;SDS011;44037;55.638;37.356;2023-10-31T01:51:44;7.10;;;4.97;;
58238;SDS011;44037;55.638;37.356;2023-10-31T01:54:13;7.57;;;5.68;;
58238;SDS011;44037;55.638;37.356;2023-10-31T01:56:42;5.68;;;5.05;;
58238;SDS011;44037;55.638;37.356;2023-10-31T01:59:11;10.35;;;5.88;;
58238;SDS011;44037;55.638;37.356;2023-10-31T02:01:38;9.23;;;5.53;;
58238;SDS011;44037;55.638;37.356;2023-10-31T02:04:06;6.50;;;5.30;;
58238;SDS011;44037;55.638;37.356;2023-10-31T02:06:34;7.95;;;6.00;;
58238;SDS011;44037;55.638;37.356;2023-10-31T02:09:01;8.98;;;5.32;;
58238;SDS011;44037;55.638;37.356;2023-10-31T02:11:29;9.32;;;5.45;;
58238;SDS011;44037;55.638;37.356;2023-10-31T02:13:58;6.38;;;5.50;;
58238;SDS011;44037;55.638;37.356;2023-10-31T02:16:26;7.10;;;5.30;;
58238;SDS011;44037;55.638;37.356;2023-10-31T02:18:53;7.40;;;5.60;;
58238;SDS011;44037;55.638;37.356;2023-10-31T02:21:21;6.95;;;5.90;;
58238;SDS011;44037;55.638;37.356;2023-10-31T02:23:57;6.20;;;5.45;;
58238;SDS011;44037;55.638;37.356;2023-10-31T02:26:28;9.95;;;6.13;;
58238;SDS011;44037;55.638;37.356;2023-10-31T02:28:57;7.05;;;5.75;;
58238;SDS011;44037;55.638;37.356;2023-10-31T02:31:24;10.52;;;7.28;;
58238;SDS011;44037;55.638;37.356;2023-10-31T02:33:53;6.85;;;6.07;;
58238;SDS011;44037;55.638;37.356;2023-10-31T02:36:21;11.63;;;7.32;;
58238;SDS011;44037;55.638;37.356;2023-10-31T02:38:49;11.10;;;7.43;;
58238;SDS011;44037;55.638;37.356;2023-10-31T02:41:18;13.00;;;8.02;;
58238;SDS011;44037;55.638;37.356;2023-10-31T02:43:45;10.45;;;6.75;;
58238;SDS011;44037;55.638;37.356;2023-10-31T02:46:14;7.30;;;6.50;;
58238;SDS011;44037;55.638;37.356;2023-10-31T02:48:42;8.95;;;7.15;;
58238;SDS011;44037;55.638;37.356;2023-10-31T02:51:09;9.15;;;7.28;;
58238;SDS011;44037;55.638;37.356;2023-10-31T02:53:38;8.35;;;6.97;;
58238;SDS011;44037;55.638;37.356;2023-10-31T02:56:06;11.45;;;7.38;;
58238;SDS011;44037;55.638;37.356;2023-10-31T02:58:35;9.35;;;7.82;;
58238;SDS011;44037;55.638;37.356;2023-10-31T03:01:03;7.82;;;7.10;;
58238;SDS011;44037;55.638;37.356;2023-10-31T03:03:30;9.82;;;8.07;;
58238;SDS011;44037;55.638;37.356;2023-10-31T03:05:58;12.23;;;8.68;;
58238;SDS011;44037;55.638;37.356;2023-10-31T03:08:26;11.20;;;8.27;;
58238;SDS011;44037;55.638;37.356;2023-10-31T03:10:54;11.32;;;8.40;;
58238;SDS011;44037;55.638;37.356;2023-10-31T03:13:21;11.02;;;8.05;;
58238;SDS011;44037;55.638;37.356;2023-10-31T03:15:50;11.38;;;8.73;;
58238;SDS011;44037;55.638;37.356;2023-10-31T03:18:18;9.23;;;8.32;;
58238;SDS011;44037;55.638;37.356;2023-10-31T03:20:46;11.25;;;8.85;;
58238;SDS011;44037;55.638;37.356;2023-10-31T03:23:13;11.38;;;8.02;;
58238;SDS011;44037;55.638;37.356;2023-10-31T03:25:41;10.85;;;8.10;;
58238;SDS011;44037;55.638;37.356;2023-10-31T03:28:17;8.07;;;6.97;;
58238;SDS011;44037;55.638;37.356;2023-10-31T03:30:48;10.57;;;8.48;;
58238;SDS011;44037;55.638;37.356;2023-10-31T03:33:18;14.48;;;8.15;;
58238;SDS011;44037;55.638;37.356;2023-10-31T03:35:46;9.57;;;7.85;;
58238;SDS011;44037;55.638;37.356;2023-10-31T03:38:14;11.38;;;8.35;;
58238;SDS011;44037;55.638;37.356;2023-10-31T03:40:42;8.70;;;7.80;;
58238;SDS011;44037;55.638;37.356;2023-10-31T03:43:09;9.38;;;8.48;;
58238;SDS011;44037;55.638;37.356;2023-10-31T03:45:37;10.90;;;8.43;;
58238;SDS011;44037;55.638;37.356;2023-10-31T03:48:06;10.95;;;8.73;;
58238;SDS011;44037;55.638;37.356;2023-10-31T03:50:34;10.93;;;8.02;;
58238;SDS011;44037;55.638;37.356;2023-10-31T03:53:01;10.38;;;7.75;;
58238;SDS011;44037;55.638;37.356;2023-10-31T03:55:29;9.25;;;8.07;;
58238;SDS011;44037;55.638;37.356;2023-10-31T03:57:57;10.05;;;8.35;;
58238;SDS011;44037;55.638;37.356;2023-10-31T04:00:25;9.48;;;7.78;;
58238;SDS011;44037;55.638;37.356;2023-10-31T04:02:52;9.98;;;8.23;;
58238;SDS011;44037;55.638;37.356;2023-10-31T04:05:27;9.10;;;7.90;;
58238;SDS011;44037;55.638;37.356;2023-10-31T04:07:55;8.35;;;7.03;;
58238;SDS011;44037;55.638;37.356;2023-10-31T04:10:22;8.25;;;7.25;;
58238;SDS011;44037;55.638;37.356;2023-10-31T04:12:51;12.48;;;8.18;;
58238;SDS011;44037;55.638;37.356;2023-10-31T04:15:18;27.80;;;10.98;;
58238;SDS011;44037;55.638;37.356;2023-10-31T04:17:46;9.02;;;7.85;;
58238;SDS011;44037;55.638;37.356;2023-10-31T04:20:14;8.55;;;7.75;;
58238;SDS011;44037;55.638;37.356;2023-10-31T04:22:43;10.65;;;7.40;;
58238;SDS011;44037;55.638;37.356;2023-10-31T04:25:11;10.10;;;8.32;;
58238;SDS011;44037;55.638;37.356;2023-10-31T04:27:39;12.82;;;8.85;;
58238;SDS011;44037;55.638;37.356;2023-10-31T04:30:07;11.02;;;8.90;;
58238;SDS011;44037;55.638;37.356;2023-10-31T04:32:35;12.38;;;9.48;;
58238;SDS011;44037;55.638;37.356;2023-10-31T04:35:03;11.18;;;8.23;;
58238;SDS011;44037;55.638;37.356;2023-10-31T04:37:31;11.80;;;8.25;;
58238;SDS011;44037;55.638;37.356;2023-10-31T04:40:01;11.43;;;8.32;;
58238;SDS011;44037;55.638;37.356;2023-10-31T04:42:31;11.20;;;8.15;;
58238;SDS011;44037;55.638;37.356;2023-10-31T04:45:00;12.20;;;8.52;;
58238;SDS011;44037;55.638;37.356;2023-10-31T04:47:33;13.57;;;8.18;;
58238;SDS011;44037;55.638;37.356;2023-10-31T04:50:00;9.90;;;8.02;;
58238;SDS011;44037;55.638;37.356;2023-10-31T04:52:31;12.15;;;8.00;;
58238;SDS011;44037;55.638;37.356;2023-10-31T04:54:58;11.38;;;7.88;;
58238;SDS011;44037;55.638;37.356;2023-10-31T04:57:30;11.52;;;8.32;;
58238;SDS011;44037;55.638;37.356;2023-10-31T04:59:58;9.80;;;8.73;;
58238;SDS011;44037;55.638;37.356;2023-10-31T05:02:26;9.27;;;8.18;;
58238;SDS011;44037;55.638;37.356;2023-10-31T05:04:54;10.57;;;9.30;;
58238;SDS011;44037;55.638;37.356;2023-10-31T05:07:24;15.40;;;10.18;;
58238;SDS011;44037;55.638;37.356;2023-10-31T05:09:51;11.48;;;8.52;;
58238;SDS011;44037;55.638;37.356;2023-10-31T05:12:20;12.20;;;8.35;;
58238;SDS011;44037;55.638;37.356;2023-10-31T05:14:48;13.05;;;9.32;;
58238;SDS011;44037;55.638;37.356;2023-10-31T05:17:16;12.35;;;11.05;;
58238;SDS011;44037;55.638;37.356;2023-10-31T05:19:43;11.98;;;9.73;;
58238;SDS011;44037;55.638;37.356;2023-10-31T05:22:11;13.55;;;10.23;;
58238;SDS011;44037;55.638;37.356;2023-10-31T05:24:39;13.50;;;8.88;;
58238;SDS011;44037;55.638;37.356;2023-10-31T05:27:06;11.68;;;8.38;;
58238;SDS011;44037;55.638;37.356;2023-10-31T05:29:38;17.48;;;12.90;;
58238;SDS011;44037;55.638;37.356;2023-10-31T05:32:06;17.42;;;13.23;;
58238;SDS011;44037;55.638;37.356;2023-10-31T05:34:36;13.68;;;8.88;;
58238;SDS011;44037;55.638;37.356;2023-10-31T05:37:03;12.60;;;9.00;;
58238;SDS011;44037;55.638;37.356;2023-10-31T05:39:32;10.55;;;8.68;;
58238;SDS011;44037;55.638;37.356;2023-10-31T05:41:59;12.02;;;9.57;;
58238;SDS011;44037;55.638;37.356;2023-10-31T05:44:27;11.55;;;8.77;;
58238;SDS011;44037;55.638;37.356;2023-10-31T05:46:56;14.55;;;9.40;;
58238;SDS011;44037;55.638;37.356;2023-10-31T05:49:24;13.25;;;9.15;;
58238;SDS011;44037;55.638;37.356;2023-10-31T05:51:52;13.80;;;10.45;;
58238;SDS011;44037;55.638;37.356;2023-10-31T05:54:19;11.48;;;9.93;;
58238;SDS011;44037;55.638;37.356;2023-10-31T05:56:47;16.00;;;11.48;;
58238;SDS011;44037;55.638;37.356;2023-10-31T05:59:15;12.75;;;10.73;;
58238;SDS011;44037;55.638;37.356;2023-10-31T06:01:42;15.57;;;10.00;;
58238;SDS011;44037;55.638;37.356;2023-10-31T06:04:11;12.23;;;10.18;;
58238;SDS011;44037;55.638;37.356;2023-10-31T06:06:39;15.52;;;11.98;;
58238;SDS011;44037;55.638;37.356;2023-10-31T06:09:07;18.65;;;11.65;;
58238;SDS011;44037;55.638;37.356;2023-10-31T06:11:36;14.02;;;10.25;;
58238;SDS011;44037;55.638;37.356;2023-10-31T06:14:06;14.50;;;11.35;;
58238;SDS011;44037;55.638;37.356;2023-10-31T06:16:39;14.52;;;11.13;;
58238;SDS011;44037;55.638;37.356;2023-10-31T06:19:07;11.55;;;9.75;;
58238;SDS011;44037;55.638;37.356;2023-10-31T06:21:36;12.98;;;11.63;;
58238;SDS011;44037;55.638;37.356;2023-10-31T06:24:04;13.10;;;10.07;;
58238;SDS011;44037;55.638;37.356;2023-10-31T06:26:32;17.05;;;11.48;;
58238;SDS011;44037;55.638;37.356;2023-10-31T06:29:00;16.35;;;10.27;;
58238;SDS011;44037;55.638;37.356;2023-10-31T06:31:28;11.95;;;10.05;;
58238;SDS011;44037;55.638;37.356;2023-10-31T06:33:55;12.25;;;9.32;;
58238;SDS011;44037;55.638;37.356;2023-10-31T06:36:23;14.90;;;11.18;;
58238;SDS011;44037;55.638;37.356;2023-10-31T06:38:52;13.10;;;10.43;;
58238;SDS011;44037;55.638;37.356;2023-10-31T06:41:20;11.10;;;9.95;;
58238;SDS011;44037;55.638;37.356;2023-10-31T06:43:48;14.90;;;12.32;;
58238;SDS011;44037;55.638;37.356;2023-10-31T06:46:16;15.20;;;12.23;;
58238;SDS011;44037;55.638;37.356;2023-10-31T06:48:44;14.50;;;11.02;;
58238;SDS011;44037;55.638;37.356;2023-10-31T06:51:11;12.55;;;11.25;;
58238;SDS011;44037;55.638;37.356;2023-10-31T06:53:39;13.60;;;9.82;;
58238;SDS011;44037;55.638;37.356;2023-10-31T06:56:08;11.30;;;9.50;;
58238;SDS011;44037;55.638;37.356;2023-10-31T06:58:36;12.55;;;8.77;;
58238;SDS011;44037;55.638;37.356;2023-10-31T07:01:03;9.48;;;8.10;;
58238;SDS011;44037;55.638;37.356;2023-10-31T07:03:31;11.30;;;9.02;;
58238;SDS011;44037;55.638;37.356;2023-10-31T07:05:59;11.30;;;8.70;;
58238;SDS011;44037;55.638;37.356;2023-10-31T07:08:27;10.32;;;8.05;;
58238;SDS011;44037;55.638;37.356;2023-10-31T07:10:55;11.68;;;9.10;;
58238;SDS011;44037;55.638;37.356;2023-10-31T07:13:24;11.70;;;8.73;;
58238;SDS011;44037;55.638;37.356;2023-10-31T07:15:52;13.93;;;10.93;;
58238;SDS011;44037;55.638;37.356;2023-10-31T07:18:20;11.25;;;8.98;;
58238;SDS011;44037;55.638;37.356;2023-10-31T07:20:47;11.38;;;9.88;;
58238;SDS011;44037;55.638;37.356;2023-10-31T07:23:15;12.25;;;9.15;;
58238;SDS011;44037;55.638;37.356;2023-10-31T07:25:43;15.00;;;10.30;;
58238;SDS011;44037;55.638;37.356;2023-10-31T07:28:11;11.05;;;9.48;;
58238;SDS011;44037;55.638;37.356;2023-10-31T07:30:40;10.63;;;8.70;;
58238;SDS011;44037;55.638;37.356;2023-10-31T07:33:07;13.77;;;9.32;;
58238;SDS011;44037;55.638;37.356;2023-10-31T07:35:35;8.90;;;8.07;;
58238;SDS011;44037;55.638;37.356;2023-10-31T07:38:03;8.95;;;7.95;;
58238;SDS011;44037;55.638;37.356;2023-10-31T07:40:30;11.95;;;9.35;;
58238;SDS011;44037;55.638;37.356;2023-10-31T07:42:58;9.25;;;8.10;;
58238;SDS011;44037;55.638;37.356;2023-10-31T07:45:26;12.63;;;8.40;;
58238;SDS011;44037;55.638;37.356;2023-10-31T07:47:55;10.70;;;8.70;;
58238;SDS011;44037;55.638;37.356;2023-10-31T07:50:23;10.52;;;8.65;;
58238;SDS011;44037;55.638;37.356;2023-10-31T07:52:50;8.95;;;7.68;;
58238;SDS011;44037;55.638;37.356;2023-10-31T07:55:18;10.70;;;8.73;;
58238;SDS011;44037;55.638;37.356;2023-10-31T07:57:46;9.40;;;8.27;;
58238;SDS011;44037;55.638;37.356;2023-10-31T08:00:14;8.52;;;7.72;;
58238;SDS011;44037;55.638;37.356;2023-10-31T08:02:42;8.98;;;8.07;;
58238;SDS011;44037;55.638;37.356;2023-10-31T08:05:11;10.68;;;7.97;;
58238;SDS011;44037;55.638;37.356;2023-10-31T08:07:39;12.38;;;9.75;;
58238;SDS011;44037;55.638;37.356;2023-10-31T08:10:07;15.07;;;9.40;;
58238;SDS011;44037;55.638;37.356;2023-10-31T08:12:35;11.40;;;9.00;;
58238;SDS011;44037;55.638;37.356;2023-10-31T08:15:03;12.23;;;9.15;;
58238;SDS011;44037;55.638;37.356;2023-10-31T08:17:31;11.55;;;9.63;;
58238;SDS011;44037;55.638;37.356;2023-10-31T08:19:59;11.43;;;9.82;;
58238;SDS011;44037;55.638;37.356;2023-10-31T08:22:32;11.50;;;9.20;;
58238;SDS011;44037;55.638;37.356;2023-10-31T08:24:59;9.93;;;8.85;;
58238;SDS011;44037;55.638;37.356;2023-10-31T08:27:28;10.20;;;8.75;;
58238;SDS011;44037;55.638;37.356;2023-10-31T08:29:55;12.02;;;8.70;;
58238;SDS011;44037;55.638;37.356;2023-10-31T08:32:23;8.30;;;7.05;;
58238;SDS011;44037;55.638;37.356;2023-10-31T08:34:51;8.23;;;7.28;;
58238;SDS011;44037;55.638;37.356;2023-10-31T08:37:20;12.20;;;7.38;;
58238;SDS011;44037;55.638;37.356;2023-10-31T08:39:49;15.30;;;7.25;;
58238;SDS011;44037;55.638;37.356;2023-10-31T08:42:16;9.82;;;7.60;;
58238;SDS011;44037;55.638;37.356;2023-10-31T08:44:44;7.70;;;6.53;;
58238;SDS011;44037;55.638;37.356;2023-10-31T08:47:11;9.95;;;6.57;;
58238;SDS011;44037;55.638;37.356;2023-10-31T08:49:39;9.07;;;6.65;;
58238;SDS011;44037;55.638;37.356;2023-10-31T08:52:07;7.50;;;6.75;;
58238;SDS011;44037;55.638;37.356;2023-10-31T08:54:34;8.07;;;5.57;;
58238;SDS011;44037;55.638;37.356;2023-10-31T08:57:03;7.63;;;6.20;;
58238;SDS011;44037;55.638;37.356;2023-10-31T08:59:31;8.27;;;6.05;;
58238;SDS011;44037;55.638;37.356;2023-10-31T09:01:59;5.53;;;4.75;;
58238;SDS011;44037;55.638;37.356;2023-10-31T09:04:27;7.28;;;6.00;;
58238;SDS011;44037;55.638;37.356;2023-10-31T09:06:54;8.77;;;5.47;;
58238;SDS011;44037;55.638;37.356;2023-10-31T09:09:22;7.05;;;5.47;;
58238;SDS011;44037;55.638;37.356;2023-10-31T09:11:49;8.18;;;6.13;;
58238;SDS011;44037;55.638;37.356;2023-10-31T09:14:18;12.30;;;5.43;;
58238;SDS011;44037;55.638;37.356;2023-10-31T09:16:46;5.88;;;5.28;;
58238;SDS011;44037;55.638;37.356;2023-10-31T09:19:14;7.88;;;5.25;;
58238;SDS011;44037;55.638;37.356;2023-10-31T09:21:42;4.55;;;3.50;;
58238;SDS011;44037;55.638;37.356;2023-10-31T09:24:11;6.60;;;4.18;;
58238;SDS011;44037;55.638;37.356;2023-10-31T09:26:41;6.05;;;3.97;;
58238;SDS011;44037;55.638;37.356;2023-10-31T09:29:10;7.10;;;4.55;;
58238;SDS011;44037;55.638;37.356;2023-10-31T09:31:39;4.57;;;4.18;;
58238;SDS011;44037;55.638;37.356;2023-10-31T09:34:07;5.18;;;3.67;;
58238;SDS011;44037;55.638;37.356;2023-10-31T09:36:35;6.28;;;4.65;;
58238;SDS011;44037;55.638;37.356;2023-10-31T09:39:03;6.53;;;4.60;;
58238;SDS011;44037;55.638;37.356;2023-10-31T09:41:30;6.00;;;4.78;;
58238;SDS011;44037;55.638;37.356;2023-10-31T09:43:59;7.60;;;4.72;;
58238;SDS011;44037;55.638;37.356;2023-10-31T09:46:27;8.95;;;5.65;;
58238;SDS011;44037;55.638;37.356;2023-10-31T09:48:57;6.95;;;5.72;;
58238;SDS011;44037;55.638;37.356;2023-10-31T09:51:24;8.15;;;6.05;;
58238;SDS011;44037;55.638;37.356;2023-10-31T09:53:53;7.40;;;6.13;;
58238;SDS011;44037;55.638;37.356;2023-10-31T09:56:22;9.93;;;6.03;;
58238;SDS011;44037;55.638;37.356;2023-10-31T09:58:50;7.43;;;5.93;;
58238;SDS011;44037;55.638;37.356;2023-10-31T10:01:18;7.75;;;6.25;;
58238;SDS011;44037;55.638;37.356;2023-10-31T10:03:46;6.55;;;5.90;;
58238;SDS011;44037;55.638;37.356;2023-10-31T10:06:16;9.10;;;6.68;;
58238;SDS011;44037;55.638;37.356;2023-10-31T10:08:47;11.43;;;6.75;;
58238;SDS011;44037;55.638;37.356;2023-10-31T10:11:14;8.38;;;6.80;;
58238;SDS011;44037;55.638;37.356;2023-10-31T10:13:42;9.25;;;6.72;;
58238;SDS011;44037;55.638;37.356;2023-10-31T10:16:10;8.15;;;6.00;;
58238;SDS011;44037;55.638;37.356;2023-10-31T10:18:38;12.18;;;8.38;;
58238;SDS011;44037;55.638;37.356;2023-10-31T10:21:06;9.50;;;7.80;;
58238;SDS011;44037;55.638;37.356;2023-10-31T10:23:36;9.10;;;7.07;;
58238;SDS011;44037;55.638;37.356;2023-10-31T10:26:04;10.52;;;8.32;;
58238;SDS011;44037;55.638;37.356;2023-10-31T10:28:32;7.13;;;6.10;;
58238;SDS011;44037;55.638;37.356;2023-10-31T10:31:00;9.15;;;6.53;;
58238;SDS011;44037;55.638;37.356;2023-10-31T10:33:28;11.15;;;8.30;;
58238;SDS011;44037;55.638;37.356;2023-10-31T10:35:56;7.40;;;6.00;;
58238;SDS011;44037;55.638;37.356;2023-10-31T10:38:24;6.75;;;5.57;;
58238;SDS011;44037;55.638;37.356;2023-10-31T10:40:54;5.82;;;5.22;;
58238;SDS011;44037;55.638;37.356;2023-10-31T10:43:24;7.78;;;5.32;;
58238;SDS011;44037;55.638;37.356;2023-10-31T10:45:53;6.95;;;5.43;;
58238;SDS011;44037;55.638;37.356;2023-10-31T10:48:23;7.40;;;6.57;;
58238;SDS011;44037;55.638;37.356;2023-10-31T10:50:55;9.77;;;6.88;;
58238;SDS011;44037;55.638;37.356;2023-10-31T10:53:29;8.02;;;6.82;;
58238;SDS011;44037;55.638;37.356;2023-10-31T10:56:03;8.67;;;7.30;;
58238;SDS011;44037;55.638;37.356;2023-10-31T10:58:37;7.82;;;7.03;;
58238;SDS011;44037;55.638;37.356;2023-10-31T11:01:11;9.90;;;8.52;;
58238;SDS011;44037;55.638;37.356;2023-10-31T11:03:39;9.95;;;7.57;;
58238;SDS011;44037;55.638;37.356;2023-10-31T11:06:07;10.82;;;8.98;;
58238;SDS011;44037;55.638;37.356;2023-10-31T11:08:36;13.68;;;8.93;;
58238;SDS011;44037;55.638;37.356;2023-10-31T11:11:06;12.68;;;9.40;;
58238;SDS011;44037;55.638;37.356;2023-10-31T11:13:35;11.15;;;9.38;;
58238;SDS011;44037;55.638;37.356;2023-10-31T11:16:06;12.32;;;11.02;;
58238;SDS011;44037;55.638;37.356;2023-10-31T11:18:38;13.73;;;11.00;;
58238;SDS011;44037;55.638;37.356;2023-10-31T11:21:07;13.15;;;10.63;;
58238;SDS011;44037;55.638;37.356;2023-10-31T11:23:35;15.57;;;12.23;;
58238;SDS011;44037;55.638;37.356;2023-10-31T11:26:05;15.77;;;12.35;;
58238;SDS011;44037;55.638;37.356;2023-10-31T11:28:34;14.60;;;10.73;;
58238;SDS011;44037;55.638;37.356;2023-10-31T11:31:03;12.30;;;11.10;;
58238;SDS011;44037;55.638;37.356;2023-10-31T11:33:33;12.27;;;10.65;;
58238;SDS011;44037;55.638;37.356;2023-10-31T11:36:00;12.48;;;9.95;;
58238;SDS011;44037;55.638;37.356;2023-10-31T11:38:34;12.30;;;11.00;;
58238;SDS011;44037;55.638;37.356;2023-10-31T11:41:02;11.68;;;10.35;;
58238;SDS011;44037;55.638;37.356;2023-10-31T11:46:24;12.15;;;10.65;;
58238;SDS011;44037;55.638;37.356;2023-10-31T11:48:52;16.25;;;11.88;;
58238;SDS011;44037;55.638;37.356;2023-10-31T11:51:22;17.75;;;13.18;;
58238;SDS011;44037;55.638;37.356;2023-10-31T11:53:49;13.52;;;12.10;;
58238;SDS011;44037;55.638;37.356;2023-10-31T11:56:18;13.85;;;12.07;;
58238;SDS011;44037;55.638;37.356;2023-10-31T11:58:54;14.60;;;11.95;;
58238;SDS011;44037;55.638;37.356;2023-10-31T12:01:24;13.02;;;11.65;;
58238;SDS011;44037;55.638;37.356;2023-10-31T12:03:51;11.82;;;10.73;;
58238;SDS011;44037;55.638;37.356;2023-10-31T12:06:19;14.43;;;11.07;;
58238;SDS011;44037;55.638;37.356;2023-10-31T12:08:47;12.73;;;10.82;;
58238;SDS011;44037;55.638;37.356;2023-10-31T12:11:16;12.45;;;11.18;;
58238;SDS011;44037;55.638;37.356;2023-10-31T12:13:53;12.10;;;10.05;;
58238;SDS011;44037;55.638;37.356;2023-10-31T12:16:27;12.45;;;9.52;;
58238;SDS011;44037;55.638;37.356;2023-10-31T12:18:56;9.82;;;8.82;;
58238;SDS011;44037;55.638;37.356;2023-10-31T12:21:34;11.65;;;9.40;;
58238;SDS011;44037;55.638;37.356;2023-10-31T12:24:03;10.93;;;9.27;;
58238;SDS011;44037;55.638;37.356;2023-10-31T12:26:32;11.88;;;9.18;;
58238;SDS011;44037;55.638;37.356;2023-10-31T12:29:06;10.05;;;9.07;;
58238;SDS011;44037;55.638;37.356;2023-10-31T12:31:39;10.82;;;9.10;;
58238;SDS011;44037;55.638;37.356;2023-10-31T12:34:07;9.38;;;7.75;;
58238;SDS011;44037;55.638;37.356;2023-10-31T12:36:35;9.18;;;8.25;;
58238;SDS011;44037;55.638;37.356;2023-10-31T12:39:03;11.77;;;8.48;;
58238;SDS011;44037;55.638;37.356;2023-10-31T12:41:35;10.50;;;9.45;;
58238;SDS011;44037;55.638;37.356;2023-10-31T12:44:03;10.57;;;9.48;;
58238;SDS011;44037;55.638;37.356;2023-10-31T12:46:32;11.50;;;9.65;;
58238;SDS011;44037;55.638;37.356;2023-10-31T12:49:02;11.85;;;10.02;;
58238;SDS011;44037;55.638;37.356;2023-10-31T12:51:30;10.75;;;9.05;;
58238;SDS011;44037;55.638;37.356;2023-10-31T12:53:57;11.07;;;8.85;;
58238;SDS011;44037;55.638;37.356;2023-10-31T12:56:35;10.80;;;9.70;;
58238;SDS011;44037;55.638;37.356;2023-10-31T12:59:06;10.82;;;9.25;;
58238;SDS011;44037;55.638;37.356;2023-10-31T13:01:35;11.15;;;8.63;;
58238;SDS011;44037;55.638;37.356;2023-10-31T13:04:05;10.57;;;8.60;;
58238;SDS011;44037;55.638;37.356;2023-10-31T13:06:33;10.43;;;8.77;;
58238;SDS011;44037;55.638;37.356;2023-10-31T13:09:01;10.05;;;8.48;;
58238;SDS011;44037;55.638;37.356;2023-10-31T13:11:31;10.02;;;9.00;;
58238;SDS011;44037;55.638;37.356;2023-10-31T13:13:59;11.02;;;9.25;;
58238;SDS011;44037;55.638;37.356;2023-10-31T13:16:27;12.75;;;9.80;;
58238;SDS011;44037;55.638;37.356;2023-10-31T13:18:55;10.57;;;9.20;;
58238;SDS011;44037;55.638;37.356;2023-10-31T13:21:24;13.85;;;10.35;;
58238;SDS011;44037;55.638;37.356;2023-10-31T13:23:52;10.30;;;8.98;;
58238;SDS011;44037;55.638;37.356;2023-10-31T13:26:19;10.40;;;9.25;;
58238;SDS011;44037;55.638;37.356;2023-10-31T13:28:47;11.00;;;9.30;;
58238;SDS011;44037;55.638;37.356;2023-10-31T13:31:15;11.40;;;9.68;;
58238;SDS011;44037;55.638;37.356;2023-10-31T13:33:43;10.93;;;9.82;;
58238;SDS011;44037;55.638;37.356;2023-10-31T13:36:12;11.30;;;10.10;;
58238;SDS011;44037;55.638;37.356;2023-10-31T13:38:42;11.88;;;10.13;;
58238;SDS011;44037;55.638;37.356;2023-10-31T13:41:09;11.02;;;9.57;;
58238;SDS011;44037;55.638;37.356;2023-10-31T13:43:37;11.30;;;10.00;;
58238;SDS011;44037;55.638;37.356;2023-10-31T13:46:05;19.42;;;11.75;;
58238;SDS011;44037;55.638;37.356;2023-10-31T13:48:33;15.80;;;12.18;;
58238;SDS011;44037;55.638;37.356;2023-10-31T13:51:01;15.35;;;11.50;;
58238;SDS011;44037;55.638;37.356;2023-10-31T13:53:29;18.75;;;13.00;;
58238;SDS011;44037;55.638;37.356;2023-10-31T13:55:58;16.45;;;12.50;;
58238;SDS011;44037;55.638;37.356;2023-10-31T13:58:26;18.83;;;14.05;;
58238;SDS011;44037;55.638;37.356;2023-10-31T14:00:53;16.58;;;13.85;;
58238;SDS011;44037;55.638;37.356;2023-10-31T14:03:21;16.08;;;13.07;;
58238;SDS011;44037;55.638;37.356;2023-10-31T14:05:50;19.52;;;14.23;;
58238;SDS011;44037;55.638;37.356;2023-10-31T14:08:18;18.38;;;14.48;;
58238;SDS011;44037;55.638;37.356;2023-10-31T14:10:46;22.17;;;15.55;;
58238;SDS011;44037;55.638;37.356;2023-10-31T14:13:16;19.92;;;15.90;;
58238;SDS011;44037;55.638;37.356;2023-10-31T14:15:46;22.23;;;16.83;;
58238;SDS011;44037;55.638;37.356;2023-10-31T14:18:14;21.73;;;16.90;;
58238;SDS011;44037;55.638;37.356;2023-10-31T14:20:42;24.20;;;17.92;;
58238;SDS011;44037;55.638;37.356;2023-10-31T14:23:09;29.02;;;18.27;;
58238;SDS011;44037;55.638;37.356;2023-10-31T14:25:37;21.83;;;17.50;;
58238;SDS011;44037;55.638;37.356;2023-10-31T14:28:05;25.02;;;19.58;;
58238;SDS011;44037;55.638;37.356;2023-10-31T14:30:34;26.52;;;20.08;;
58238;SDS011;44037;55.638;37.356;2023-10-31T14:33:02;28.95;;;21.27;;